Ana Sayfa
METAR-TAF:

METAR-TAF

Havaalanları :

Ubon Ratchathani, Tayland

Enlem: 15-15N, Boylam: 104-52E, yükseklik: 123 m

Güncel hava durumu gözlemi

Rapor saat 09:00 UTC de 1 saat ve 8 dakika önce yapıldı.
Rüzgar kuzey/kuzeydoğudan 5 kt, kuzeybatı ve doğu/kuzeydoğu arasında değişken
Sıcaklık 34°C
Nem 22%
Basınç 1010 hPa
Görüş mesafesi 10 km veya daha fazla
1500 m altında bulut yok ve kümülonimbus yok

METAR: VTUU 250900Z 02005KT 320V060 CAVOK 34/09 Q1010 NOSIG

Saat: 17:08 (10:08 UTC)

Tahmin

Rapor saat 05:00 UTC de 5 saat ve 8 dakika önce yapıldı.
Ayın 25'si saat 06 UTC'den ayın 26'si saat 06 UTC'ye kadar geçerli Tahmin
Rüzgar doğudan 5 kt
Görüş mesafesi 10 km veya daha fazla
1500 m altında bulut yok ve kümülonimbus yok

TAF: VTUU 250500Z 2506/2606 08005KT CAVOK

4.000'den fazla havaalanı için hava durumu gözlemleri ve tahminleri (METAR ve TAF raporları).

Kullanılabilir istasyonlar harita üzerinde sarı ve kırmızı noktalarla gösterilir.

İstasyonun adını görmek için fareyi noktanın üzerinde gezdirin.

Sonrasında hava gözlem ve tahminlerini görmek için tıklayın.

Haritayı değiştirmek için: yaklaştırmak için siyah artı işaretli yeşil düğmeye ve uzaklaştırmak için de eksi işaretli düğmeye hızla tıklayın; bitişik haritalar için yeşil okları kullanın.


METAR-TAF: